Angostura, New Mexico
Current Conditions -  °F | °C
As of 5:55 AM on Sunday 23 Nov 2014 (Local Time) from KSKX Reporting Station
Overcast Overcast  
Wind Chill: 25°   Ceiling: 4600
Heat Index: 34°   Visibility: 10mi
Dew Point: 25°   Wind: 13mph
Humidity: 70%   Direction: 250°WSW
Pressure: 29.72"   Gusts: NA
Location:  36.1892°N, 105.688°W
Report Text: KSKX 231255Z AUTO 25011KT 10SM BKN046 BKN055 OVC110 01/M04 A2972 RMK AO1
Loading
Personal Weather Stations






























Interactive Weather Map New forecast layout! Learn more

10-Day Weather Forecast

Advertisements
Track Severe Weather on mobile